Time,TemperatureF,DewpointF,PressureIn,WindDirection,WindDirectionDegrees,WindSpeedMPH,WindSpeedGustMPH,Humidity,HourlyPrecipIn,Conditions,Clouds,dailyrainin,SoftwareType,DateUTC
2013-11-08 00:03:00,57.1,48.0,30.07,WNW,300,0.0,8.0,72,0.00,,,0.00,weatherlink.com 1.10,2013-11-08 05:03:00,
2013-11-08 00:19:00,56.1,47.0,30.07,SW,236,0.0,2.0,71,0.00,,,0.00,weatherlink.com 1.10,2013-11-08 05:19:00,
2013-11-08 00:34:00,55.6,46.0,30.08,NNE,28,1.0,5.0,70,0.00,,,0.00,weatherlink.com 1.10,2013-11-08 05:34:00,
2013-11-08 00:49:00,55.2,45.0,30.09,NNE,26,0.0,5.0,68,0.00,,,0.00,weatherlink.com 1.10,2013-11-08 05:49:00,
2013-11-08 01:04:00,54.8,45.0,30.09,WSW,250,0.0,3.0,69,0.00,,,0.00,weatherlink.com 1.10,2013-11-08 06:04:00,
2013-11-08 01:19:00,53.7,45.0,30.10,North,356,0.0,2.0,73,0.00,,,0.00,weatherlink.com 1.10,2013-11-08 06:19:00,
2013-11-08 01:34:00,53.3,44.0,30.11,West,262,0.0,1.0,71,0.00,,,0.00,weatherlink.com 1.10,2013-11-08 06:34:00,
2013-11-08 01:49:00,52.9,44.0,30.11,ENE,70,0.0,2.0,72,0.00,,,0.00,weatherlink.com 1.10,2013-11-08 06:49:00,
2013-11-08 02:04:00,52.5,44.0,30.12,NNE,14,0.0,1.0,73,0.00,,,0.00,weatherlink.com 1.10,2013-11-08 07:04:00,
2013-11-08 02:19:00,53.0,43.0,30.13,NE,39,0.0,6.0,70,0.00,,,0.00,weatherlink.com 1.10,2013-11-08 07:19:00,
2013-11-08 02:34:00,52.9,43.0,30.14,NNE,20,0.0,4.0,68,0.00,,,0.00,weatherlink.com 1.10,2013-11-08 07:34:00,
2013-11-08 02:49:00,52.5,42.0,30.14,SE,136,0.0,3.0,68,0.00,,,0.00,weatherlink.com 1.10,2013-11-08 07:49:00,
2013-11-08 03:04:00,52.0,42.0,30.15,NE,50,0.0,7.0,69,0.00,,,0.00,weatherlink.com 1.10,2013-11-08 08:04:00,
2013-11-08 03:19:00,51.1,41.0,30.15,NNE,26,0.0,2.0,69,0.00,,,0.00,weatherlink.com 1.10,2013-11-08 08:19:00,
2013-11-08 03:34:00,50.1,41.0,30.16,SE,136,0.0,2.0,72,0.00,,,0.00,weatherlink.com 1.10,2013-11-08 08:34:00,
2013-11-08 03:49:00,49.1,41.0,30.16,East,99,0.0,1.0,74,0.00,,,0.00,weatherlink.com 1.10,2013-11-08 08:49:00,
2013-11-08 04:04:00,48.0,41.0,30.16,WSW,250,0.0,0.0,76,0.00,,,0.00,weatherlink.com 1.10,2013-11-08 09:04:00,
2013-11-08 04:19:00,47.3,41.0,30.17,WSW,240,0.0,1.0,78,0.00,,,0.00,weatherlink.com 1.10,2013-11-08 09:19:00,
2013-11-08 04:34:00,46.9,40.0,30.18,NE,53,0.0,3.0,78,0.00,,,0.00,weatherlink.com 1.10,2013-11-08 09:34:00,
2013-11-08 04:50:00,47.1,40.0,30.18,West,261,0.0,4.0,77,0.00,,,0.00,weatherlink.com 1.10,2013-11-08 09:50:00,
2013-11-08 05:04:00,47.0,39.0,30.19,NW,326,0.0,4.0,75,0.00,,,0.00,weatherlink.com 1.10,2013-11-08 10:04:00,
2013-11-08 05:20:00,46.8,39.0,30.19,East,98,0.0,1.0,75,0.00,,,0.00,weatherlink.com 1.10,2013-11-08 10:20:00,
2013-11-08 05:35:00,46.8,38.0,30.20,ENE,76,0.0,6.0,72,0.00,,,0.00,weatherlink.com 1.10,2013-11-08 10:35:00,
2013-11-08 05:50:00,46.6,38.0,30.21,ENE,78,0.0,3.0,72,0.00,,,0.00,weatherlink.com 1.10,2013-11-08 10:50:00,
2013-11-08 06:05:00,46.5,38.0,30.21,NE,36,0.0,4.0,71,0.00,,,0.00,weatherlink.com 1.10,2013-11-08 11:05:00,
2013-11-08 06:20:00,46.0,38.0,30.22,NE,40,0.0,5.0,73,0.00,,,0.00,weatherlink.com 1.10,2013-11-08 11:20:00,
2013-11-08 06:35:00,45.6,38.0,30.23,WSW,247,0.0,2.0,74,0.00,,,0.00,weatherlink.com 1.10,2013-11-08 11:35:00,
2013-11-08 06:50:00,45.2,38.0,30.23,SW,221,1.0,3.0,75,0.00,,,0.00,weatherlink.com 1.10,2013-11-08 11:50:00,
2013-11-08 07:05:00,45.6,37.0,30.24,North,9,0.0,5.0,71,0.00,,,0.00,weatherlink.com 1.10,2013-11-08 12:05:00,
2013-11-08 07:20:00,46.3,37.0,30.25,WSW,250,0.0,4.0,70,0.00,,,0.00,weatherlink.com 1.10,2013-11-08 12:20:00,
2013-11-08 07:35:00,46.5,37.0,30.25,North,359,0.0,4.0,69,0.00,,,0.00,weatherlink.com 1.10,2013-11-08 12:35:00,
2013-11-08 07:50:00,46.9,37.0,30.26,SW,221,0.0,5.0,69,0.00,,,0.00,weatherlink.com 1.10,2013-11-08 12:50:00,
2013-11-08 08:05:00,47.2,37.0,30.27,ESE,113,0.0,3.0,68,0.00,,,0.00,weatherlink.com 1.10,2013-11-08 13:05:00,
2013-11-08 08:20:00,48.3,37.0,30.28,SSE,161,0.0,5.0,65,0.00,,,0.00,weatherlink.com 1.10,2013-11-08 13:20:00,
2013-11-08 08:35:00,49.4,36.0,30.28,SSE,158,2.0,6.0,60,0.00,,,0.00,weatherlink.com 1.10,2013-11-08 13:35:00,
2013-11-08 08:50:00,50.8,37.0,30.29,NNW,343,1.0,5.0,59,0.00,,,0.00,weatherlink.com 1.10,2013-11-08 13:50:00,
2013-11-08 09:05:00,51.1,37.0,30.29,ENE,72,0.0,8.0,58,0.00,,,0.00,weatherlink.com 1.10,2013-11-08 14:05:00,
2013-11-08 09:20:00,52.0,37.0,30.29,WNW,299,0.0,7.0,56,0.00,,,0.00,weatherlink.com 1.10,2013-11-08 14:20:00,
2013-11-08 09:35:00,52.8,37.0,30.29,SE,139,0.0,6.0,55,0.00,,,0.00,weatherlink.com 1.10,2013-11-08 14:35:00,
2013-11-08 09:50:00,54.1,38.0,30.30,East,92,1.0,5.0,54,0.00,,,0.00,weatherlink.com 1.10,2013-11-08 14:50:00,
2013-11-08 10:05:00,54.3,36.0,30.30,NE,47,0.0,5.0,50,0.00,,,0.00,weatherlink.com 1.10,2013-11-08 15:05:00,
2013-11-08 10:20:00,54.8,35.0,30.30,SE,136,1.0,8.0,47,0.00,,,0.00,weatherlink.com 1.10,2013-11-08 15:20:00,
2013-11-08 10:35:00,56.0,34.0,30.30,NNW,342,1.0,4.0,43,0.00,,,0.00,weatherlink.com 1.10,2013-11-08 15:35:00,
2013-11-08 10:50:00,56.1,35.0,30.30,North,349,0.0,5.0,45,0.00,,,0.00,weatherlink.com 1.10,2013-11-08 15:50:00,
2013-11-08 11:05:00,56.3,35.0,30.30,WSW,250,1.0,6.0,45,0.00,,,0.00,weatherlink.com 1.10,2013-11-08 16:05:00,
2013-11-08 11:20:00,57.0,36.0,30.29,WSW,248,0.0,4.0,46,0.00,,,0.00,weatherlink.com 1.10,2013-11-08 16:20:00,
2013-11-08 11:35:00,57.2,34.0,30.29,North,359,2.0,4.0,42,0.00,,,0.00,weatherlink.com 1.10,2013-11-08 16:35:00,
2013-11-08 11:50:00,57.2,35.0,30.28,NNE,22,1.0,6.0,43,0.00,,,0.00,weatherlink.com 1.10,2013-11-08 16:50:00,
2013-11-08 12:05:00,57.1,35.0,30.27,NE,37,1.0,8.0,43,0.00,,,0.00,weatherlink.com 1.10,2013-11-08 17:05:00,
2013-11-08 12:20:00,57.4,35.0,30.26,NW,323,1.0,4.0,43,0.00,,,0.00,weatherlink.com 1.10,2013-11-08 17:20:00,
2013-11-08 12:35:00,57.5,33.0,30.25,NNE,16,0.0,7.0,40,0.00,,,0.00,weatherlink.com 1.10,2013-11-08 17:35:00,
2013-11-08 12:50:00,57.8,34.0,30.25,SW,218,0.0,6.0,41,0.00,,,0.00,weatherlink.com 1.10,2013-11-08 17:50:00,
2013-11-08 13:05:00,58.1,34.0,30.25,NW,323,2.0,5.0,41,0.00,,,0.00,weatherlink.com 1.10,2013-11-08 18:05:00,
2013-11-08 13:20:00,58.3,34.0,30.24,ESE,108,1.0,4.0,41,0.00,,,0.00,weatherlink.com 1.10,2013-11-08 18:20:00,
2013-11-08 13:35:00,58.5,34.0,30.24,East,89,0.0,8.0,40,0.00,,,0.00,weatherlink.com 1.10,2013-11-08 18:35:00,
2013-11-08 13:50:00,58.0,33.0,30.23,SW,222,1.0,6.0,39,0.00,,,0.00,weatherlink.com 1.10,2013-11-08 18:50:00,
2013-11-08 14:06:00,58.2,34.0,30.23,NE,34,2.0,5.0,40,0.00,,,0.00,weatherlink.com 1.10,2013-11-08 19:06:00,
2013-11-08 14:21:00,58.3,36.0,30.23,East,88,2.0,5.0,43,0.00,,,0.00,weatherlink.com 1.10,2013-11-08 19:21:00,
2013-11-08 14:36:00,58.4,36.0,30.23,ESE,119,1.0,3.0,43,0.00,,,0.00,weatherlink.com 1.10,2013-11-08 19:36:00,
2013-11-08 14:51:00,58.4,35.0,30.23,NE,56,0.0,4.0,41,0.00,,,0.00,weatherlink.com 1.10,2013-11-08 19:51:00,
2013-11-08 15:06:00,58.1,34.0,30.24,NW,318,0.0,3.0,41,0.00,,,0.00,weatherlink.com 1.10,2013-11-08 20:06:00,
2013-11-08 15:21:00,57.8,36.0,30.23,NE,52,0.0,3.0,45,0.00,,,0.00,weatherlink.com 1.10,2013-11-08 20:21:00,
2013-11-08 15:36:00,57.7,38.0,30.23,NW,315,0.0,1.0,48,0.00,,,0.00,weatherlink.com 1.10,2013-11-08 20:36:00,
2013-11-08 15:51:00,57.4,37.0,30.24,WSW,240,0.0,1.0,46,0.00,,,0.00,weatherlink.com 1.10,2013-11-08 20:51:00,
2013-11-08 16:06:00,57.2,37.0,30.24,SW,222,0.0,2.0,47,0.00,,,0.00,weatherlink.com 1.10,2013-11-08 21:06:00,
2013-11-08 16:21:00,56.6,37.0,30.25,NNE,17,0.0,1.0,49,0.00,,,0.00,weatherlink.com 1.10,2013-11-08 21:21:00,
2013-11-08 16:36:00,56.0,39.0,30.25,NNE,17,0.0,1.0,53,0.00,,,0.00,weatherlink.com 1.10,2013-11-08 21:36:00,
2013-11-08 16:51:00,54.6,39.0,30.25,NNE,13,0.0,1.0,57,0.00,,,0.00,weatherlink.com 1.10,2013-11-08 21:51:00,
2013-11-08 17:06:00,52.8,41.0,30.25,NNE,13,0.0,0.0,64,0.00,,,0.00,weatherlink.com 1.10,2013-11-08 22:06:00,
2013-11-08 17:21:00,50.9,43.0,30.25,NNE,13,0.0,0.0,74,0.00,,,0.00,weatherlink.com 1.10,2013-11-08 22:21:00,
2013-11-08 17:36:00,49.4,42.0,30.26,NNE,13,0.0,0.0,75,0.00,,,0.00,weatherlink.com 1.10,2013-11-08 22:36:00,
2013-11-08 17:51:00,48.0,43.0,30.26,NNE,13,0.0,0.0,83,0.00,,,0.00,weatherlink.com 1.10,2013-11-08 22:51:00,
2013-11-08 18:06:00,46.7,43.0,30.27,NNE,13,0.0,0.0,85,0.00,,,0.00,weatherlink.com 1.10,2013-11-08 23:06:00,
2013-11-08 18:21:00,45.4,42.0,30.27,NNE,13,0.0,0.0,87,0.00,,,0.00,weatherlink.com 1.10,2013-11-08 23:21:00,
2013-11-08 18:36:00,44.5,42.0,30.27,NNE,13,0.0,0.0,89,0.00,,,0.00,weatherlink.com 1.10,2013-11-08 23:36:00,
2013-11-08 18:51:00,44.2,42.0,30.27,NNE,13,0.0,0.0,93,0.00,,,0.00,weatherlink.com 1.10,2013-11-08 23:51:00,
2013-11-08 19:06:00,43.6,42.0,30.28,NNE,13,0.0,0.0,94,0.00,,,0.00,weatherlink.com 1.10,2013-11-09 00:06:00,
2013-11-08 19:21:00,43.1,42.0,30.28,NNE,13,0.0,0.0,95,0.00,,,0.00,weatherlink.com 1.10,2013-11-09 00:21:00,
2013-11-08 19:36:00,42.9,42.0,30.29,NNE,13,0.0,0.0,96,0.00,,,0.00,weatherlink.com 1.10,2013-11-09 00:36:00,
2013-11-08 19:51:00,42.3,41.0,30.28,NNE,13,0.0,0.0,96,0.00,,,0.00,weatherlink.com 1.10,2013-11-09 00:51:00,
2013-11-08 20:06:00,41.5,40.0,30.28,NNE,14,0.0,-999.0,95,-99.99,,,0.00,weatherlink.com 1.10,2013-11-09 01:06:00,
2013-11-08 20:21:00,41.0,40.0,30.30,NNE,14,0.0,0.0,96,0.00,,,0.00,weatherlink.com 1.10,2013-11-09 01:21:00,
2013-11-08 20:36:00,40.9,40.0,30.30,NNE,14,0.0,0.0,97,0.00,,,0.00,weatherlink.com 1.10,2013-11-09 01:36:00,
2013-11-08 20:51:00,40.4,40.0,30.30,NNE,14,0.0,0.0,97,0.00,,,0.00,weatherlink.com 1.10,2013-11-09 01:51:00,
2013-11-08 21:06:00,40.6,40.0,30.30,ESE,115,0.0,0.0,97,0.00,,,0.00,weatherlink.com 1.10,2013-11-09 02:06:00,
2013-11-08 21:21:00,40.3,39.0,30.31,ESE,115,0.0,0.0,96,0.00,,,0.00,weatherlink.com 1.10,2013-11-09 02:21:00,
2013-11-08 21:36:00,40.0,39.0,30.31,ESE,115,0.0,0.0,96,0.00,,,0.00,weatherlink.com 1.10,2013-11-09 02:36:00,
2013-11-08 21:51:00,39.9,39.0,30.31,ESE,115,0.0,0.0,96,0.00,,,0.00,weatherlink.com 1.10,2013-11-09 02:51:00,
2013-11-08 22:06:00,39.6,39.0,30.31,ESE,115,0.0,0.0,96,0.00,,,0.00,weatherlink.com 1.10,2013-11-09 03:06:00,
2013-11-08 22:21:00,39.1,38.0,30.31,ESE,115,0.0,0.0,96,0.00,,,0.00,weatherlink.com 1.10,2013-11-09 03:21:00,
2013-11-08 22:36:00,39.1,38.0,30.31,ESE,115,0.0,0.0,97,0.00,,,0.00,weatherlink.com 1.10,2013-11-09 03:36:00,
2013-11-08 22:51:00,38.6,38.0,30.32,ESE,117,0.0,0.0,96,0.00,,,0.00,weatherlink.com 1.10,2013-11-09 03:51:00,
2013-11-08 23:06:00,38.4,38.0,30.32,ESE,117,0.0,0.0,97,0.00,,,0.00,weatherlink.com 1.10,2013-11-09 04:06:00,
2013-11-08 23:21:00,38.0,37.0,30.32,ESE,117,0.0,0.0,97,0.00,,,0.00,weatherlink.com 1.10,2013-11-09 04:21:00,
2013-11-08 23:36:00,37.8,37.0,30.31,ESE,117,0.0,0.0,97,0.00,,,0.00,weatherlink.com 1.10,2013-11-09 04:36:00,
2013-11-08 23:51:00,37.6,37.0,30.31,ESE,117,0.0,0.0,98,0.00,,,0.00,weatherlink.com 1.10,2013-11-09 04:51:00,